sensor_id;sensor_type;location;lat;lon;timestamp;temperature;humidity
50955;DHT22;36966;48.064;-0.792;2023-03-05T00:01:20;17.20;33.80
50955;DHT22;36966;48.064;-0.792;2023-03-05T00:03:43;17.20;33.80
50955;DHT22;36966;48.064;-0.792;2023-03-05T00:06:03;17.20;33.90
50955;DHT22;36966;48.064;-0.792;2023-03-05T00:08:22;17.20;33.90
50955;DHT22;36966;48.064;-0.792;2023-03-05T00:10:41;17.20;33.80
50955;DHT22;36966;48.064;-0.792;2023-03-05T00:13:01;17.20;33.90
50955;DHT22;36966;48.064;-0.792;2023-03-05T00:15:20;17.20;34.00
50955;DHT22;36966;48.064;-0.792;2023-03-05T00:17:39;17.20;34.00
50955;DHT22;36966;48.064;-0.792;2023-03-05T00:19:59;17.20;34.00
50955;DHT22;36966;48.064;-0.792;2023-03-05T00:22:18;17.20;34.10
50955;DHT22;36966;48.064;-0.792;2023-03-05T00:24:37;17.20;34.10
50955;DHT22;36966;48.064;-0.792;2023-03-05T00:26:57;17.20;34.10
50955;DHT22;36966;48.064;-0.792;2023-03-05T00:29:18;17.20;34.20
50955;DHT22;36966;48.064;-0.792;2023-03-05T00:31:38;17.20;34.10
50955;DHT22;36966;48.064;-0.792;2023-03-05T00:34:00;17.20;34.20
50955;DHT22;36966;48.064;-0.792;2023-03-05T00:36:20;17.20;34.20
50955;DHT22;36966;48.064;-0.792;2023-03-05T00:38:39;17.20;34.20
50955;DHT22;36966;48.064;-0.792;2023-03-05T00:40:58;17.20;34.20
50955;DHT22;36966;48.064;-0.792;2023-03-05T00:43:17;17.20;34.20
50955;DHT22;36966;48.064;-0.792;2023-03-05T00:45:38;17.20;34.20
50955;DHT22;36966;48.064;-0.792;2023-03-05T00:47:57;17.20;34.20
50955;DHT22;36966;48.064;-0.792;2023-03-05T00:50:16;17.20;34.20
50955;DHT22;36966;48.064;-0.792;2023-03-05T00:52:35;17.20;34.30
50955;DHT22;36966;48.064;-0.792;2023-03-05T00:54:54;17.20;34.30
50955;DHT22;36966;48.064;-0.792;2023-03-05T00:57:13;17.20;34.30
50955;DHT22;36966;48.064;-0.792;2023-03-05T00:59:33;17.20;34.30
50955;DHT22;36966;48.064;-0.792;2023-03-05T01:01:52;17.20;34.30
50955;DHT22;36966;48.064;-0.792;2023-03-05T01:04:12;17.10;34.30
50955;DHT22;36966;48.064;-0.792;2023-03-05T01:06:31;17.20;34.30
50955;DHT22;36966;48.064;-0.792;2023-03-05T01:08:50;17.10;34.30
50955;DHT22;36966;48.064;-0.792;2023-03-05T01:11:09;17.10;34.30
50955;DHT22;36966;48.064;-0.792;2023-03-05T01:13:29;17.10;34.30
50955;DHT22;36966;48.064;-0.792;2023-03-05T01:15:48;17.10;34.30
50955;DHT22;36966;48.064;-0.792;2023-03-05T01:18:09;17.10;34.30
50955;DHT22;36966;48.064;-0.792;2023-03-05T01:20:28;17.10;34.30
50955;DHT22;36966;48.064;-0.792;2023-03-05T01:22:47;17.10;34.30
50955;DHT22;36966;48.064;-0.792;2023-03-05T01:25:07;17.10;34.30
50955;DHT22;36966;48.064;-0.792;2023-03-05T01:27:27;17.10;34.30
50955;DHT22;36966;48.064;-0.792;2023-03-05T01:29:46;17.10;34.30
50955;DHT22;36966;48.064;-0.792;2023-03-05T01:32:05;17.10;34.30
50955;DHT22;36966;48.064;-0.792;2023-03-05T01:34:25;17.10;34.30
50955;DHT22;36966;48.064;-0.792;2023-03-05T01:36:44;17.10;34.30
50955;DHT22;36966;48.064;-0.792;2023-03-05T01:39:03;17.10;34.30
50955;DHT22;36966;48.064;-0.792;2023-03-05T01:41:22;17.10;34.30
50955;DHT22;36966;48.064;-0.792;2023-03-05T01:43:43;17.10;34.30
50955;DHT22;36966;48.064;-0.792;2023-03-05T01:46:36;17.10;34.40
50955;DHT22;36966;48.064;-0.792;2023-03-05T01:51:19;17.00;34.40
50955;DHT22;36966;48.064;-0.792;2023-03-05T01:53:40;17.00;34.40
50955;DHT22;36966;48.064;-0.792;2023-03-05T01:56:00;17.00;34.40
50955;DHT22;36966;48.064;-0.792;2023-03-05T01:58:19;17.00;34.40
50955;DHT22;36966;48.064;-0.792;2023-03-05T02:00:49;17.00;34.40
50955;DHT22;36966;48.064;-0.792;2023-03-05T02:03:12;17.00;34.40
50955;DHT22;36966;48.064;-0.792;2023-03-05T02:05:34;17.00;34.40
50955;DHT22;36966;48.064;-0.792;2023-03-05T02:07:59;17.00;34.40
50955;DHT22;36966;48.064;-0.792;2023-03-05T02:10:25;17.00;34.40
50955;DHT22;36966;48.064;-0.792;2023-03-05T02:12:47;17.00;34.40
50955;DHT22;36966;48.064;-0.792;2023-03-05T02:15:07;17.00;34.40
50955;DHT22;36966;48.064;-0.792;2023-03-05T02:17:27;17.00;34.40
50955;DHT22;36966;48.064;-0.792;2023-03-05T02:19:51;17.00;34.40
50955;DHT22;36966;48.064;-0.792;2023-03-05T02:22:15;17.00;34.40
50955;DHT22;36966;48.064;-0.792;2023-03-05T02:24:35;17.00;34.40
50955;DHT22;36966;48.064;-0.792;2023-03-05T02:26:55;17.00;34.40
50955;DHT22;36966;48.064;-0.792;2023-03-05T02:29:17;16.90;34.40
50955;DHT22;36966;48.064;-0.792;2023-03-05T02:31:37;17.00;34.40
50955;DHT22;36966;48.064;-0.792;2023-03-05T02:33:57;16.90;34.40
50955;DHT22;36966;48.064;-0.792;2023-03-05T02:36:16;17.00;34.40
50955;DHT22;36966;48.064;-0.792;2023-03-05T02:38:37;16.90;34.50
50955;DHT22;36966;48.064;-0.792;2023-03-05T02:40:56;16.90;34.50
50955;DHT22;36966;48.064;-0.792;2023-03-05T02:43:15;16.90;34.50
50955;DHT22;36966;48.064;-0.792;2023-03-05T02:45:35;16.90;34.50
50955;DHT22;36966;48.064;-0.792;2023-03-05T02:47:54;16.90;34.50
50955;DHT22;36966;48.064;-0.792;2023-03-05T02:50:13;17.00;34.60
50955;DHT22;36966;48.064;-0.792;2023-03-05T02:52:33;16.90;34.60
50955;DHT22;36966;48.064;-0.792;2023-03-05T02:54:52;17.00;34.60
50955;DHT22;36966;48.064;-0.792;2023-03-05T02:57:11;16.90;34.60
50955;DHT22;36966;48.064;-0.792;2023-03-05T02:59:30;16.90;34.60
50955;DHT22;36966;48.064;-0.792;2023-03-05T03:01:49;16.90;34.60
50955;DHT22;36966;48.064;-0.792;2023-03-05T03:04:08;16.90;34.60
50955;DHT22;36966;48.064;-0.792;2023-03-05T03:06:28;16.90;34.60
50955;DHT22;36966;48.064;-0.792;2023-03-05T03:08:47;16.90;34.60
50955;DHT22;36966;48.064;-0.792;2023-03-05T03:11:08;16.90;34.60
50955;DHT22;36966;48.064;-0.792;2023-03-05T03:13:28;16.90;34.60
50955;DHT22;36966;48.064;-0.792;2023-03-05T03:15:47;16.90;34.60
50955;DHT22;36966;48.064;-0.792;2023-03-05T03:18:06;16.90;34.60
50955;DHT22;36966;48.064;-0.792;2023-03-05T03:20:26;16.90;34.60
50955;DHT22;36966;48.064;-0.792;2023-03-05T03:22:46;16.90;34.70
50955;DHT22;36966;48.064;-0.792;2023-03-05T03:25:06;16.90;34.60
50955;DHT22;36966;48.064;-0.792;2023-03-05T03:27:26;16.80;34.70
50955;DHT22;36966;48.064;-0.792;2023-03-05T03:29:45;16.90;34.60
50955;DHT22;36966;48.064;-0.792;2023-03-05T03:32:04;16.90;34.60
50955;DHT22;36966;48.064;-0.792;2023-03-05T03:34:24;16.80;34.60
50955;DHT22;36966;48.064;-0.792;2023-03-05T03:36:44;16.80;34.60
50955;DHT22;36966;48.064;-0.792;2023-03-05T03:39:04;16.80;34.60
50955;DHT22;36966;48.064;-0.792;2023-03-05T03:41:24;16.80;34.60
50955;DHT22;36966;48.064;-0.792;2023-03-05T03:43:42;16.80;34.60
50955;DHT22;36966;48.064;-0.792;2023-03-05T03:46:08;16.80;34.70
50955;DHT22;36966;48.064;-0.792;2023-03-05T03:48:27;16.80;34.70
50955;DHT22;36966;48.064;-0.792;2023-03-05T03:50:46;16.80;34.70
50955;DHT22;36966;48.064;-0.792;2023-03-05T03:53:05;16.80;34.70
50955;DHT22;36966;48.064;-0.792;2023-03-05T03:55:25;16.80;34.70
50955;DHT22;36966;48.064;-0.792;2023-03-05T03:57:44;16.80;34.70
50955;DHT22;36966;48.064;-0.792;2023-03-05T04:00:05;16.80;34.70
50955;DHT22;36966;48.064;-0.792;2023-03-05T04:02:28;16.80;34.70
50955;DHT22;36966;48.064;-0.792;2023-03-05T04:04:47;16.80;34.70
50955;DHT22;36966;48.064;-0.792;2023-03-05T04:07:06;16.80;34.70
50955;DHT22;36966;48.064;-0.792;2023-03-05T04:09:26;16.80;34.70
50955;DHT22;36966;48.064;-0.792;2023-03-05T04:11:45;16.70;34.80
50955;DHT22;36966;48.064;-0.792;2023-03-05T04:14:04;16.80;34.80
50955;DHT22;36966;48.064;-0.792;2023-03-05T04:16:24;16.70;34.80
50955;DHT22;36966;48.064;-0.792;2023-03-05T04:18:44;16.80;34.80
50955;DHT22;36966;48.064;-0.792;2023-03-05T04:21:03;16.80;34.80
50955;DHT22;36966;48.064;-0.792;2023-03-05T04:23:24;16.70;34.90
50955;DHT22;36966;48.064;-0.792;2023-03-05T04:25:43;16.70;34.80
50955;DHT22;36966;48.064;-0.792;2023-03-05T04:28:02;16.80;34.80
50955;DHT22;36966;48.064;-0.792;2023-03-05T04:30:21;16.80;34.80
50955;DHT22;36966;48.064;-0.792;2023-03-05T04:32:40;16.70;34.80
50955;DHT22;36966;48.064;-0.792;2023-03-05T04:35:00;16.70;34.90
50955;DHT22;36966;48.064;-0.792;2023-03-05T04:37:19;16.70;34.90
50955;DHT22;36966;48.064;-0.792;2023-03-05T04:39:38;16.70;34.90
50955;DHT22;36966;48.064;-0.792;2023-03-05T04:41:57;16.70;34.90
50955;DHT22;36966;48.064;-0.792;2023-03-05T04:44:16;16.70;34.90
50955;DHT22;36966;48.064;-0.792;2023-03-05T04:46:36;16.70;35.00
50955;DHT22;36966;48.064;-0.792;2023-03-05T04:48:56;16.70;35.00
50955;DHT22;36966;48.064;-0.792;2023-03-05T04:51:15;16.70;35.00
50955;DHT22;36966;48.064;-0.792;2023-03-05T04:53:34;16.70;35.00
50955;DHT22;36966;48.064;-0.792;2023-03-05T04:55:54;16.70;35.00
50955;DHT22;36966;48.064;-0.792;2023-03-05T04:58:14;16.70;35.00
50955;DHT22;36966;48.064;-0.792;2023-03-05T05:00:34;16.70;34.90
50955;DHT22;36966;48.064;-0.792;2023-03-05T05:02:54;16.70;35.00
50955;DHT22;36966;48.064;-0.792;2023-03-05T05:05:23;16.70;35.00
50955;DHT22;36966;48.064;-0.792;2023-03-05T05:07:43;16.70;35.00
50955;DHT22;36966;48.064;-0.792;2023-03-05T05:10:03;16.70;35.00
50955;DHT22;36966;48.064;-0.792;2023-03-05T05:12:23;16.70;35.00
50955;DHT22;36966;48.064;-0.792;2023-03-05T05:14:42;16.70;35.00
50955;DHT22;36966;48.064;-0.792;2023-03-05T05:17:02;16.70;35.00
50955;DHT22;36966;48.064;-0.792;2023-03-05T05:19:24;16.80;35.00
50955;DHT22;36966;48.064;-0.792;2023-03-05T05:21:43;16.80;35.00
50955;DHT22;36966;48.064;-0.792;2023-03-05T05:24:03;16.70;35.00
50955;DHT22;36966;48.064;-0.792;2023-03-05T05:26:22;16.80;35.00
50955;DHT22;36966;48.064;-0.792;2023-03-05T05:28:42;16.80;35.00
50955;DHT22;36966;48.064;-0.792;2023-03-05T05:31:09;16.80;34.90
50955;DHT22;36966;48.064;-0.792;2023-03-05T05:33:29;16.80;34.90
50955;DHT22;36966;48.064;-0.792;2023-03-05T05:35:48;16.80;34.90
50955;DHT22;36966;48.064;-0.792;2023-03-05T05:38:08;16.80;34.90
50955;DHT22;36966;48.064;-0.792;2023-03-05T05:40:27;16.80;34.90
50955;DHT22;36966;48.064;-0.792;2023-03-05T05:42:46;16.90;34.90
50955;DHT22;36966;48.064;-0.792;2023-03-05T05:45:05;16.90;34.90
50955;DHT22;36966;48.064;-0.792;2023-03-05T05:47:24;16.90;34.90
50955;DHT22;36966;48.064;-0.792;2023-03-05T05:49:43;16.90;34.90
50955;DHT22;36966;48.064;-0.792;2023-03-05T05:52:03;16.90;34.90
50955;DHT22;36966;48.064;-0.792;2023-03-05T05:54:22;16.90;34.90
50955;DHT22;36966;48.064;-0.792;2023-03-05T05:56:41;16.90;34.90
50955;DHT22;36966;48.064;-0.792;2023-03-05T05:59:00;16.90;34.90
50955;DHT22;36966;48.064;-0.792;2023-03-05T06:01:26;16.90;34.90
50955;DHT22;36966;48.064;-0.792;2023-03-05T06:03:46;17.00;34.90
50955;DHT22;36966;48.064;-0.792;2023-03-05T06:06:12;16.90;34.90
50955;DHT22;36966;48.064;-0.792;2023-03-05T06:08:32;16.90;34.90
50955;DHT22;36966;48.064;-0.792;2023-03-05T06:10:54;17.00;34.90
50955;DHT22;36966;48.064;-0.792;2023-03-05T06:13:13;17.00;34.90
50955;DHT22;36966;48.064;-0.792;2023-03-05T06:15:32;17.00;34.90
50955;DHT22;36966;48.064;-0.792;2023-03-05T06:17:51;17.00;34.90
50955;DHT22;36966;48.064;-0.792;2023-03-05T06:20:12;17.00;34.90
50955;DHT22;36966;48.064;-0.792;2023-03-05T06:22:35;17.00;34.90
50955;DHT22;36966;48.064;-0.792;2023-03-05T06:24:55;17.00;34.90
50955;DHT22;36966;48.064;-0.792;2023-03-05T06:27:14;17.00;34.90
50955;DHT22;36966;48.064;-0.792;2023-03-05T06:29:33;17.00;34.90
50955;DHT22;36966;48.064;-0.792;2023-03-05T06:31:52;17.00;34.90
50955;DHT22;36966;48.064;-0.792;2023-03-05T06:34:12;17.00;34.90
50955;DHT22;36966;48.064;-0.792;2023-03-05T06:36:31;17.10;34.90
50955;DHT22;36966;48.064;-0.792;2023-03-05T06:38:51;17.00;34.90
50955;DHT22;36966;48.064;-0.792;2023-03-05T06:41:17;17.10;34.90
50955;DHT22;36966;48.064;-0.792;2023-03-05T06:43:38;17.10;34.90
50955;DHT22;36966;48.064;-0.792;2023-03-05T06:46:03;17.10;34.90
50955;DHT22;36966;48.064;-0.792;2023-03-05T06:48:22;17.10;34.90
50955;DHT22;36966;48.064;-0.792;2023-03-05T06:50:41;17.10;34.90
50955;DHT22;36966;48.064;-0.792;2023-03-05T06:53:01;17.10;34.90
50955;DHT22;36966;48.064;-0.792;2023-03-05T06:55:20;17.10;34.80
50955;DHT22;36966;48.064;-0.792;2023-03-05T06:57:39;17.10;34.90
50955;DHT22;36966;48.064;-0.792;2023-03-05T06:59:59;17.10;34.90
50955;DHT22;36966;48.064;-0.792;2023-03-05T07:02:18;17.10;34.90
50955;DHT22;36966;48.064;-0.792;2023-03-05T07:04:38;17.10;34.90
50955;DHT22;36966;48.064;-0.792;2023-03-05T07:06:57;17.10;34.80
50955;DHT22;36966;48.064;-0.792;2023-03-05T07:09:18;17.10;34.80
50955;DHT22;36966;48.064;-0.792;2023-03-05T07:11:38;17.10;34.90
50955;DHT22;36966;48.064;-0.792;2023-03-05T07:13:57;17.10;34.80
50955;DHT22;36966;48.064;-0.792;2023-03-05T07:16:20;17.10;34.80
50955;DHT22;36966;48.064;-0.792;2023-03-05T07:18:39;17.10;34.80
50955;DHT22;36966;48.064;-0.792;2023-03-05T07:21:02;17.00;34.80
50955;DHT22;36966;48.064;-0.792;2023-03-05T07:23:22;17.00;34.80
50955;DHT22;36966;48.064;-0.792;2023-03-05T07:25:41;17.10;34.90
50955;DHT22;36966;48.064;-0.792;2023-03-05T07:28:00;17.10;34.80
50955;DHT22;36966;48.064;-0.792;2023-03-05T07:30:20;17.10;34.90
50955;DHT22;36966;48.064;-0.792;2023-03-05T07:32:39;17.00;34.90
50955;DHT22;36966;48.064;-0.792;2023-03-05T07:34:58;17.10;34.90
50955;DHT22;36966;48.064;-0.792;2023-03-05T07:37:17;17.10;34.90
50955;DHT22;36966;48.064;-0.792;2023-03-05T07:39:36;17.10;34.90
50955;DHT22;36966;48.064;-0.792;2023-03-05T07:41:55;17.00;34.90
50955;DHT22;36966;48.064;-0.792;2023-03-05T07:44:14;17.00;34.90
50955;DHT22;36966;48.064;-0.792;2023-03-05T07:46:35;17.00;34.90
50955;DHT22;36966;48.064;-0.792;2023-03-05T07:48:54;17.00;34.90
50955;DHT22;36966;48.064;-0.792;2023-03-05T07:51:16;17.10;34.90
50955;DHT22;36966;48.064;-0.792;2023-03-05T07:53:36;17.00;34.90
50955;DHT22;36966;48.064;-0.792;2023-03-05T07:55:55;17.10;34.90
50955;DHT22;36966;48.064;-0.792;2023-03-05T07:58:15;17.00;34.90
50955;DHT22;36966;48.064;-0.792;2023-03-05T08:00:34;17.00;34.80
50955;DHT22;36966;48.064;-0.792;2023-03-05T08:02:53;17.10;34.70
50955;DHT22;36966;48.064;-0.792;2023-03-05T08:05:13;17.10;34.70
50955;DHT22;36966;48.064;-0.792;2023-03-05T08:07:32;17.00;34.70
50955;DHT22;36966;48.064;-0.792;2023-03-05T08:09:51;17.10;34.70
50955;DHT22;36966;48.064;-0.792;2023-03-05T08:12:10;17.10;34.70
50955;DHT22;36966;48.064;-0.792;2023-03-05T08:14:29;17.10;34.70
50955;DHT22;36966;48.064;-0.792;2023-03-05T08:16:48;17.10;34.70
50955;DHT22;36966;48.064;-0.792;2023-03-05T08:19:10;17.10;34.70
50955;DHT22;36966;48.064;-0.792;2023-03-05T08:21:32;17.10;34.70
50955;DHT22;36966;48.064;-0.792;2023-03-05T08:23:52;17.10;34.70
50955;DHT22;36966;48.064;-0.792;2023-03-05T08:26:13;17.10;34.80
50955;DHT22;36966;48.064;-0.792;2023-03-05T08:28:33;17.00;34.70
50955;DHT22;36966;48.064;-0.792;2023-03-05T08:30:52;17.00;34.70
50955;DHT22;36966;48.064;-0.792;2023-03-05T08:33:12;17.10;34.70
50955;DHT22;36966;48.064;-0.792;2023-03-05T08:35:32;17.10;34.80
50955;DHT22;36966;48.064;-0.792;2023-03-05T08:37:51;17.00;34.80
50955;DHT22;36966;48.064;-0.792;2023-03-05T08:40:11;17.10;34.80
50955;DHT22;36966;48.064;-0.792;2023-03-05T08:42:30;17.00;34.80
50955;DHT22;36966;48.064;-0.792;2023-03-05T08:44:50;17.00;34.80
50955;DHT22;36966;48.064;-0.792;2023-03-05T08:47:09;17.10;34.80
50955;DHT22;36966;48.064;-0.792;2023-03-05T08:49:28;17.10;34.80
50955;DHT22;36966;48.064;-0.792;2023-03-05T08:51:47;17.00;34.80
50955;DHT22;36966;48.064;-0.792;2023-03-05T08:54:08;17.10;34.80
50955;DHT22;36966;48.064;-0.792;2023-03-05T08:56:27;17.10;34.80
50955;DHT22;36966;48.064;-0.792;2023-03-05T08:58:49;17.00;34.80
50955;DHT22;36966;48.064;-0.792;2023-03-05T09:01:10;17.10;34.80
50955;DHT22;36966;48.064;-0.792;2023-03-05T09:03:30;17.00;34.70
50955;DHT22;36966;48.064;-0.792;2023-03-05T09:05:49;17.10;34.80
50955;DHT22;36966;48.064;-0.792;2023-03-05T09:08:09;17.00;34.70
50955;DHT22;36966;48.064;-0.792;2023-03-05T09:10:28;17.10;34.80
50955;DHT22;36966;48.064;-0.792;2023-03-05T09:12:48;17.10;34.80
50955;DHT22;36966;48.064;-0.792;2023-03-05T09:15:08;17.10;34.80
50955;DHT22;36966;48.064;-0.792;2023-03-05T09:17:28;17.10;34.80
50955;DHT22;36966;48.064;-0.792;2023-03-05T09:19:47;17.10;34.80
50955;DHT22;36966;48.064;-0.792;2023-03-05T09:22:07;17.00;34.80
50955;DHT22;36966;48.064;-0.792;2023-03-05T09:24:26;17.10;34.80
50955;DHT22;36966;48.064;-0.792;2023-03-05T09:26:45;17.10;34.80
50955;DHT22;36966;48.064;-0.792;2023-03-05T09:29:04;17.10;34.80
50955;DHT22;36966;48.064;-0.792;2023-03-05T09:31:25;17.10;34.80
50955;DHT22;36966;48.064;-0.792;2023-03-05T09:33:47;17.20;37.40
50955;DHT22;36966;48.064;-0.792;2023-03-05T09:36:21;17.20;36.70
50955;DHT22;36966;48.064;-0.792;2023-03-05T09:38:41;17.20;36.30
50955;DHT22;36966;48.064;-0.792;2023-03-05T09:41:05;17.20;36.00
50955;DHT22;36966;48.064;-0.792;2023-03-05T09:48:49;17.10;35.50
50955;DHT22;36966;48.064;-0.792;2023-03-05T09:51:14;17.10;35.40
50955;DHT22;36966;48.064;-0.792;2023-03-05T09:56:12;17.10;35.20
50955;DHT22;36966;48.064;-0.792;2023-03-05T09:58:47;17.10;35.20
50955;DHT22;36966;48.064;-0.792;2023-03-05T10:06:36;17.10;35.00
50955;DHT22;36966;48.064;-0.792;2023-03-05T10:12:09;17.20;36.70
50955;DHT22;36966;48.064;-0.792;2023-03-05T10:14:38;17.20;36.30
50955;DHT22;36966;48.064;-0.792;2023-03-05T10:17:37;17.20;36.00
50955;DHT22;36966;48.064;-0.792;2023-03-05T10:23:03;17.10;35.60
50955;DHT22;36966;48.064;-0.792;2023-03-05T10:25:44;17.10;35.50
50955;DHT22;36966;48.064;-0.792;2023-03-05T10:28:15;17.10;35.40
50955;DHT22;36966;48.064;-0.792;2023-03-05T10:30:58;17.10;35.30
50955;DHT22;36966;48.064;-0.792;2023-03-05T10:41:10;17.10;35.10
50955;DHT22;36966;48.064;-0.792;2023-03-05T10:44:15;17.10;35.10
50955;DHT22;36966;48.064;-0.792;2023-03-05T10:46:37;17.10;35.10
50955;DHT22;36966;48.064;-0.792;2023-03-05T10:49:20;17.10;35.00
50955;DHT22;36966;48.064;-0.792;2023-03-05T10:51:51;17.10;35.00
50955;DHT22;36966;48.064;-0.792;2023-03-05T10:54:15;17.10;35.00
50955;DHT22;36966;48.064;-0.792;2023-03-05T10:56:36;17.10;35.00
50955;DHT22;36966;48.064;-0.792;2023-03-05T10:58:55;17.10;35.00
50955;DHT22;36966;48.064;-0.792;2023-03-05T11:03:54;17.10;34.90
50955;DHT22;36966;48.064;-0.792;2023-03-05T11:06:15;17.20;34.90
50955;DHT22;36966;48.064;-0.792;2023-03-05T11:08:44;17.10;34.90
50955;DHT22;36966;48.064;-0.792;2023-03-05T11:13:32;17.20;34.80
50955;DHT22;36966;48.064;-0.792;2023-03-05T11:15:59;17.20;34.80
50955;DHT22;36966;48.064;-0.792;2023-03-05T11:18:20;17.20;34.80
50955;DHT22;36966;48.064;-0.792;2023-03-05T11:20:41;17.10;34.80
50955;DHT22;36966;48.064;-0.792;2023-03-05T11:25:59;17.10;34.80
50955;DHT22;36966;48.064;-0.792;2023-03-05T11:28:26;17.20;34.80
50955;DHT22;36966;48.064;-0.792;2023-03-05T11:30:55;17.20;34.80
50955;DHT22;36966;48.064;-0.792;2023-03-05T11:33:18;17.20;34.80
50955;DHT22;36966;48.064;-0.792;2023-03-05T11:35:40;17.10;34.80
50955;DHT22;36966;48.064;-0.792;2023-03-05T11:38:02;17.20;34.80
50955;DHT22;36966;48.064;-0.792;2023-03-05T11:40:23;17.20;34.80
50955;DHT22;36966;48.064;-0.792;2023-03-05T11:42:44;17.20;34.70
50955;DHT22;36966;48.064;-0.792;2023-03-05T11:45:04;17.20;34.80
50955;DHT22;36966;48.064;-0.792;2023-03-05T11:50:24;17.20;34.70
50955;DHT22;36966;48.064;-0.792;2023-03-05T11:53:03;17.20;34.70
50955;DHT22;36966;48.064;-0.792;2023-03-05T11:55:26;17.20;34.80
50955;DHT22;36966;48.064;-0.792;2023-03-05T11:57:52;17.20;34.70
50955;DHT22;36966;48.064;-0.792;2023-03-05T12:00:18;17.20;34.70
50955;DHT22;36966;48.064;-0.792;2023-03-05T12:02:39;17.20;34.70
50955;DHT22;36966;48.064;-0.792;2023-03-05T12:04:58;17.20;34.70
50955;DHT22;36966;48.064;-0.792;2023-03-05T12:07:35;17.20;34.70
50955;DHT22;36966;48.064;-0.792;2023-03-05T12:09:55;17.20;34.70
50955;DHT22;36966;48.064;-0.792;2023-03-05T12:12:28;17.20;34.70
50955;DHT22;36966;48.064;-0.792;2023-03-05T12:19:52;17.20;34.70
50955;DHT22;36966;48.064;-0.792;2023-03-05T12:22:19;17.20;34.70
50955;DHT22;36966;48.064;-0.792;2023-03-05T12:24:38;17.20;34.60
50955;DHT22;36966;48.064;-0.792;2023-03-05T12:31:45;17.20;34.60
50955;DHT22;36966;48.064;-0.792;2023-03-05T12:37:00;17.20;34.60
50955;DHT22;36966;48.064;-0.792;2023-03-05T12:41:58;17.20;34.60
50955;DHT22;36966;48.064;-0.792;2023-03-05T12:44:18;17.20;34.60
50955;DHT22;36966;48.064;-0.792;2023-03-05T12:46:41;17.20;34.60
50955;DHT22;36966;48.064;-0.792;2023-03-05T12:51:41;17.20;34.60
50955;DHT22;36966;48.064;-0.792;2023-03-05T12:54:32;17.20;34.50
50955;DHT22;36966;48.064;-0.792;2023-03-05T12:56:52;17.20;34.60
50955;DHT22;36966;48.064;-0.792;2023-03-05T12:59:15;17.20;34.60
50955;DHT22;36966;48.064;-0.792;2023-03-05T13:04:05;17.20;34.60
50955;DHT22;36966;48.064;-0.792;2023-03-05T13:06:33;17.20;34.60
50955;DHT22;36966;48.064;-0.792;2023-03-05T13:09:06;17.20;34.60
50955;DHT22;36966;48.064;-0.792;2023-03-05T13:11:27;17.20;34.60
50955;DHT22;36966;48.064;-0.792;2023-03-05T13:13:48;17.20;34.60
50955;DHT22;36966;48.064;-0.792;2023-03-05T13:16:17;17.20;34.70
50955;DHT22;36966;48.064;-0.792;2023-03-05T13:18:41;17.20;34.60
50955;DHT22;36966;48.064;-0.792;2023-03-05T13:21:13;17.20;34.60
50955;DHT22;36966;48.064;-0.792;2023-03-05T13:23:34;17.20;34.60
50955;DHT22;36966;48.064;-0.792;2023-03-05T13:26:13;17.20;34.60
50955;DHT22;36966;48.064;-0.792;2023-03-05T13:28:36;17.20;34.60
50955;DHT22;36966;48.064;-0.792;2023-03-05T13:31:03;17.20;34.60
50955;DHT22;36966;48.064;-0.792;2023-03-05T13:33:27;17.20;34.50
50955;DHT22;36966;48.064;-0.792;2023-03-05T13:35:46;17.20;34.50
50955;DHT22;36966;48.064;-0.792;2023-03-05T13:40:40;17.20;34.50
50955;DHT22;36966;48.064;-0.792;2023-03-05T13:43:11;17.20;34.50
50955;DHT22;36966;48.064;-0.792;2023-03-05T13:45:31;17.20;34.50
50955;DHT22;36966;48.064;-0.792;2023-03-05T13:47:59;17.20;34.50
50955;DHT22;36966;48.064;-0.792;2023-03-05T13:50:26;17.20;34.50
50955;DHT22;36966;48.064;-0.792;2023-03-05T13:52:46;17.30;34.50
50955;DHT22;36966;48.064;-0.792;2023-03-05T13:55:13;17.30;34.50
50955;DHT22;36966;48.064;-0.792;2023-03-05T13:57:42;17.20;34.50
50955;DHT22;36966;48.064;-0.792;2023-03-05T14:00:04;17.30;36.60
50955;DHT22;36966;48.064;-0.792;2023-03-05T14:02:24;17.40;36.10
50955;DHT22;36966;48.064;-0.792;2023-03-05T14:04:45;17.30;35.60
50955;DHT22;36966;48.064;-0.792;2023-03-05T14:07:07;17.30;35.50
50955;DHT22;36966;48.064;-0.792;2023-03-05T14:09:50;17.30;35.40
50955;DHT22;36966;48.064;-0.792;2023-03-05T14:12:24;17.30;35.20
50955;DHT22;36966;48.064;-0.792;2023-03-05T14:14:46;17.30;35.10
50955;DHT22;36966;48.064;-0.792;2023-03-05T14:17:41;17.30;35.00
50955;DHT22;36966;48.064;-0.792;2023-03-05T14:22:33;17.30;34.90
50955;DHT22;36966;48.064;-0.792;2023-03-05T14:24:53;17.30;34.80
50955;DHT22;36966;48.064;-0.792;2023-03-05T14:27:16;17.30;34.80
50955;DHT22;36966;48.064;-0.792;2023-03-05T14:29:37;17.30;34.80
50955;DHT22;36966;48.064;-0.792;2023-03-05T14:32:06;17.30;34.80
50955;DHT22;36966;48.064;-0.792;2023-03-05T14:34:36;17.30;34.70
50955;DHT22;36966;48.064;-0.792;2023-03-05T14:37:17;17.30;34.70
50955;DHT22;36966;48.064;-0.792;2023-03-05T14:39:50;17.30;34.60
50955;DHT22;36966;48.064;-0.792;2023-03-05T14:42:36;17.30;34.60
50955;DHT22;36966;48.064;-0.792;2023-03-05T14:44:56;17.30;34.60
50955;DHT22;36966;48.064;-0.792;2023-03-05T14:47:15;17.30;34.50
50955;DHT22;36966;48.064;-0.792;2023-03-05T14:49:35;17.30;34.60
50955;DHT22;36966;48.064;-0.792;2023-03-05T14:51:54;17.30;34.50
50955;DHT22;36966;48.064;-0.792;2023-03-05T14:54:24;17.30;34.50
50955;DHT22;36966;48.064;-0.792;2023-03-05T14:56:44;17.30;34.40
50955;DHT22;36966;48.064;-0.792;2023-03-05T14:59:03;17.30;34.40
50955;DHT22;36966;48.064;-0.792;2023-03-05T15:01:23;17.40;34.40
50955;DHT22;36966;48.064;-0.792;2023-03-05T15:03:43;17.40;34.30
50955;DHT22;36966;48.064;-0.792;2023-03-05T15:06:02;17.40;34.30
50955;DHT22;36966;48.064;-0.792;2023-03-05T15:08:22;17.40;34.30
50955;DHT22;36966;48.064;-0.792;2023-03-05T15:10:42;17.40;34.20
50955;DHT22;36966;48.064;-0.792;2023-03-05T15:13:02;17.30;34.20
50955;DHT22;36966;48.064;-0.792;2023-03-05T15:15:21;17.40;34.20
50955;DHT22;36966;48.064;-0.792;2023-03-05T15:17:43;17.40;34.10
50955;DHT22;36966;48.064;-0.792;2023-03-05T15:20:06;17.40;34.10
50955;DHT22;36966;48.064;-0.792;2023-03-05T15:22:28;17.40;34.10
50955;DHT22;36966;48.064;-0.792;2023-03-05T15:24:47;17.40;34.10
50955;DHT22;36966;48.064;-0.792;2023-03-05T15:27:06;17.40;34.10
50955;DHT22;36966;48.064;-0.792;2023-03-05T15:29:25;17.40;34.10
50955;DHT22;36966;48.064;-0.792;2023-03-05T15:31:44;17.40;34.00
50955;DHT22;36966;48.064;-0.792;2023-03-05T15:34:04;17.40;34.00
50955;DHT22;36966;48.064;-0.792;2023-03-05T15:36:23;17.40;34.00
50955;DHT22;36966;48.064;-0.792;2023-03-05T15:38:43;17.40;34.00
50955;DHT22;36966;48.064;-0.792;2023-03-05T15:41:04;17.40;34.00
50955;DHT22;36966;48.064;-0.792;2023-03-05T15:43:24;17.40;34.00
50955;DHT22;36966;48.064;-0.792;2023-03-05T15:45:44;17.40;33.90
50955;DHT22;36966;48.064;-0.792;2023-03-05T15:48:04;17.40;33.90